sensor_id;sensor_type;location;lat;lon;timestamp;pressure;altitude;pressure_sealevel;temperature;humidity
69173;BME280;56280;49.662;8.408;2023-02-20T00:01:01;101799.25;;;11.19;65.87
69173;BME280;56280;49.662;8.408;2023-02-20T00:03:26;101779.25;;;10.99;66.33
69173;BME280;56280;49.662;8.408;2023-02-20T00:05:52;101850.84;;;11.59;66.37
69173;BME280;56280;49.662;8.408;2023-02-20T00:08:17;101753.78;;;10.94;66.21
69173;BME280;56280;49.662;8.408;2023-02-20T00:10:43;101766.59;;;10.88;66.29
69173;BME280;56280;49.662;8.408;2023-02-20T00:13:10;101806.31;;;11.20;65.95
69173;BME280;56280;49.662;8.408;2023-02-20T00:15:36;101760.16;;;10.77;65.54
69173;BME280;56280;49.662;8.408;2023-02-20T00:18:01;101860.81;;;11.41;65.68
69173;BME280;56280;49.662;8.408;2023-02-20T00:20:27;101730.72;;;10.66;65.28
69173;BME280;56280;49.662;8.408;2023-02-20T00:22:54;101782.28;;;11.07;64.85
69173;BME280;56280;49.662;8.408;2023-02-20T00:25:20;101778.00;;;10.75;65.64
69173;BME280;56280;49.662;8.408;2023-02-20T00:27:46;101833.94;;;11.17;66.03
69173;BME280;56280;49.662;8.408;2023-02-20T00:30:15;101821.22;;;10.79;67.36
69173;BME280;56280;49.662;8.408;2023-02-20T00:32:41;101756.50;;;10.35;68.02
69173;BME280;56280;49.662;8.408;2023-02-20T00:35:09;101720.34;;;10.33;67.51
69173;BME280;56280;49.662;8.408;2023-02-20T00:37:35;101762.69;;;10.50;67.30
69173;BME280;56280;49.662;8.408;2023-02-20T00:40:03;101765.16;;;10.39;67.55
69173;BME280;56280;49.662;8.408;2023-02-20T00:42:28;101757.94;;;10.41;67.18
69173;BME280;56280;49.662;8.408;2023-02-20T00:44:53;101754.72;;;10.20;66.81
69173;BME280;56280;49.662;8.408;2023-02-20T00:47:19;101735.78;;;9.96;66.23
69173;BME280;56280;49.662;8.408;2023-02-20T00:49:44;101750.66;;;10.14;65.25
69173;BME280;56280;49.662;8.408;2023-02-20T00:52:12;101708.00;;;9.87;64.26
69173;BME280;56280;49.662;8.408;2023-02-20T00:54:38;101837.56;;;10.57;64.30
69173;BME280;56280;49.662;8.408;2023-02-20T00:57:03;101760.53;;;10.27;63.69
69173;BME280;56280;49.662;8.408;2023-02-20T00:59:31;101764.00;;;10.13;63.01
69173;BME280;56280;49.662;8.408;2023-02-20T01:01:57;101826.00;;;10.28;63.31
69173;BME280;56280;49.662;8.408;2023-02-20T01:04:23;101697.78;;;9.33;63.55
69173;BME280;56280;49.662;8.408;2023-02-20T01:06:48;101754.97;;;9.39;64.75
69173;BME280;56280;49.662;8.408;2023-02-20T01:09:13;101841.38;;;9.91;64.08
69173;BME280;56280;49.662;8.408;2023-02-20T01:11:41;101797.81;;;9.63;63.57
69173;BME280;56280;49.662;8.408;2023-02-20T01:14:07;101749.56;;;9.24;64.14
69173;BME280;56280;49.662;8.408;2023-02-20T01:16:35;101763.94;;;9.52;64.36
69173;BME280;56280;49.662;8.408;2023-02-20T01:19:00;101771.97;;;9.51;63.87
69173;BME280;56280;49.662;8.408;2023-02-20T01:21:26;101815.19;;;9.84;63.65
69173;BME280;56280;49.662;8.408;2023-02-20T01:23:51;101811.41;;;9.89;63.08
69173;BME280;56280;49.662;8.408;2023-02-20T01:26:17;101776.31;;;9.67;63.00
69173;BME280;56280;49.662;8.408;2023-02-20T01:28:44;101818.50;;;10.04;63.22
69173;BME280;56280;49.662;8.408;2023-02-20T01:31:09;101800.34;;;9.96;63.05
69173;BME280;56280;49.662;8.408;2023-02-20T01:33:35;101820.03;;;10.08;63.01
69173;BME280;56280;49.662;8.408;2023-02-20T01:36:00;101819.16;;;10.08;62.53
69173;BME280;56280;49.662;8.408;2023-02-20T01:38:26;101824.22;;;9.96;64.10
69173;BME280;56280;49.662;8.408;2023-02-20T01:40:51;101794.81;;;9.69;64.48
69173;BME280;56280;49.662;8.408;2023-02-20T01:43:20;101833.59;;;9.88;64.20
69173;BME280;56280;49.662;8.408;2023-02-20T01:45:48;101837.72;;;9.77;65.00
69173;BME280;56280;49.662;8.408;2023-02-20T01:48:22;101682.53;;;8.57;66.81
69173;BME280;56280;49.662;8.408;2023-02-20T01:50:48;101717.84;;;8.73;67.38
69173;BME280;56280;49.662;8.408;2023-02-20T01:53:19;101749.84;;;8.86;68.11
69173;BME280;56280;49.662;8.408;2023-02-20T01:58:30;101789.63;;;8.69;69.58
69173;BME280;56280;49.662;8.408;2023-02-20T02:01:02;101687.41;;;8.14;70.20
69173;BME280;56280;49.662;8.408;2023-02-20T02:03:34;101831.00;;;8.71;71.00
69173;BME280;56280;49.662;8.408;2023-02-20T02:06:06;101837.94;;;8.74;71.50
69173;BME280;56280;49.662;8.408;2023-02-20T02:08:36;101735.81;;;8.33;70.99
69173;BME280;56280;49.662;8.408;2023-02-20T02:11:07;101832.56;;;9.09;70.60
69173;BME280;56280;49.662;8.408;2023-02-20T02:13:34;101759.44;;;8.89;69.43
69173;BME280;56280;49.662;8.408;2023-02-20T02:18:52;101708.09;;;8.23;70.35
69173;BME280;56280;49.662;8.408;2023-02-20T02:35:25;101799.94;;;8.57;71.68
69173;BME280;56280;49.662;8.408;2023-02-20T02:38:02;101772.38;;;8.44;71.38
69173;BME280;56280;49.662;8.408;2023-02-20T02:40:41;101738.84;;;8.26;71.38
69173;BME280;56280;49.662;8.408;2023-02-20T02:43:14;101743.44;;;8.22;72.12
69173;BME280;56280;49.662;8.408;2023-02-20T02:45:52;101766.19;;;8.26;72.00
69173;BME280;56280;49.662;8.408;2023-02-20T02:48:27;101778.97;;;8.18;73.14
69173;BME280;56280;49.662;8.408;2023-02-20T02:50:57;101771.63;;;7.69;74.96
69173;BME280;56280;49.662;8.408;2023-02-20T02:53:23;101759.81;;;7.40;76.07
69173;BME280;56280;49.662;8.408;2023-02-20T02:55:51;101740.19;;;7.63;75.07
69173;BME280;56280;49.662;8.408;2023-02-20T02:58:17;101777.25;;;8.17;73.22
69173;BME280;56280;49.662;8.408;2023-02-20T03:00:54;101778.00;;;8.19;73.58
69173;BME280;56280;49.662;8.408;2023-02-20T03:03:29;101784.72;;;8.26;73.44
69173;BME280;56280;49.662;8.408;2023-02-20T03:06:08;101785.81;;;8.22;73.23
69173;BME280;56280;49.662;8.408;2023-02-20T03:08:44;101734.63;;;7.69;74.09
69173;BME280;56280;49.662;8.408;2023-02-20T03:11:16;101756.31;;;7.58;74.95
69173;BME280;56280;49.662;8.408;2023-02-20T03:14:30;101766.22;;;7.72;75.66
69173;BME280;56280;49.662;8.408;2023-02-20T03:19:30;101774.13;;;8.09;74.09
69173;BME280;56280;49.662;8.408;2023-02-20T03:21:57;101685.81;;;7.57;73.61
69173;BME280;56280;49.662;8.408;2023-02-20T03:24:25;101756.31;;;7.76;74.95
69173;BME280;56280;49.662;8.408;2023-02-20T03:26:55;101753.47;;;7.80;74.96
69173;BME280;56280;49.662;8.408;2023-02-20T03:29:34;101775.06;;;8.08;74.90
69173;BME280;56280;49.662;8.408;2023-02-20T03:32:08;101777.72;;;8.25;74.25
69173;BME280;56280;49.662;8.408;2023-02-20T03:34:54;101743.75;;;7.98;73.94
69173;BME280;56280;49.662;8.408;2023-02-20T03:37:42;101750.19;;;7.75;75.74
69173;BME280;56280;49.662;8.408;2023-02-20T03:40:29;101780.13;;;7.76;76.20
69173;BME280;56280;49.662;8.408;2023-02-20T03:43:17;101792.88;;;8.04;74.72
69173;BME280;56280;49.662;8.408;2023-02-20T03:46:05;101774.34;;;8.04;74.63
69173;BME280;56280;49.662;8.408;2023-02-20T03:48:40;101792.09;;;8.02;74.89
69173;BME280;56280;49.662;8.408;2023-02-20T03:51:07;101775.34;;;8.01;74.94
69173;BME280;56280;49.662;8.408;2023-02-20T03:53:36;101753.19;;;7.67;75.30
69173;BME280;56280;49.662;8.408;2023-02-20T03:56:04;101793.72;;;8.04;75.04
69173;BME280;56280;49.662;8.408;2023-02-20T03:58:33;101731.97;;;7.69;74.56
69173;BME280;56280;49.662;8.408;2023-02-20T04:01:02;101736.13;;;7.75;74.46
69173;BME280;56280;49.662;8.408;2023-02-20T04:03:32;101762.13;;;8.01;74.36
69173;BME280;56280;49.662;8.408;2023-02-20T04:06:01;101760.41;;;7.83;74.53
69173;BME280;56280;49.662;8.408;2023-02-20T04:08:36;101743.75;;;7.81;74.56
69173;BME280;56280;49.662;8.408;2023-02-20T04:13:39;101796.53;;;8.01;74.68
69173;BME280;56280;49.662;8.408;2023-02-20T04:16:06;101661.28;;;7.00;75.20
69173;BME280;56280;49.662;8.408;2023-02-20T04:18:34;101665.16;;;6.92;76.22
69173;BME280;56280;49.662;8.408;2023-02-20T04:21:02;101784.94;;;7.67;76.19
69173;BME280;56280;49.662;8.408;2023-02-20T04:23:30;101796.66;;;7.81;75.68
69173;BME280;56280;49.662;8.408;2023-02-20T04:26:04;101795.22;;;7.74;75.87
69173;BME280;56280;49.662;8.408;2023-02-20T04:28:31;101693.47;;;7.08;75.44
69173;BME280;56280;49.662;8.408;2023-02-20T04:30:59;101687.53;;;6.65;76.74
69173;BME280;56280;49.662;8.408;2023-02-20T04:33:24;101807.50;;;6.80;79.03
69173;BME280;56280;49.662;8.408;2023-02-20T04:35:50;101716.50;;;6.47;79.88
69173;BME280;56280;49.662;8.408;2023-02-20T04:38:16;101740.00;;;6.72;78.97
69173;BME280;56280;49.662;8.408;2023-02-20T04:40:42;101640.81;;;6.27;78.07
69173;BME280;56280;49.662;8.408;2023-02-20T04:43:07;101713.69;;;6.50;78.91
69173;BME280;56280;49.662;8.408;2023-02-20T04:45:33;101722.38;;;6.73;78.57
69173;BME280;56280;49.662;8.408;2023-02-20T04:47:58;101634.75;;;6.25;78.01
69173;BME280;56280;49.662;8.408;2023-02-20T04:50:32;101642.63;;;6.46;77.71
69173;BME280;56280;49.662;8.408;2023-02-20T04:52:59;101761.97;;;7.12;77.71
69173;BME280;56280;49.662;8.408;2023-02-20T04:55:25;101738.72;;;6.62;78.86
69173;BME280;56280;49.662;8.408;2023-02-20T04:57:51;101785.00;;;6.90;79.16
69173;BME280;56280;49.662;8.408;2023-02-20T05:00:18;101770.97;;;6.89;78.86
69173;BME280;56280;49.662;8.408;2023-02-20T05:02:46;101787.69;;;7.09;77.67
69173;BME280;56280;49.662;8.408;2023-02-20T05:05:18;101810.44;;;7.11;78.25
69173;BME280;56280;49.662;8.408;2023-02-20T05:07:44;101806.13;;;7.10;77.78
69173;BME280;56280;49.662;8.408;2023-02-20T05:10:13;101766.03;;;7.01;77.58
69173;BME280;56280;49.662;8.408;2023-02-20T05:12:39;101747.25;;;6.88;77.48
69173;BME280;56280;49.662;8.408;2023-02-20T05:15:05;101723.84;;;6.60;77.85
69173;BME280;56280;49.662;8.408;2023-02-20T05:17:30;101672.22;;;6.33;77.80
69173;BME280;56280;49.662;8.408;2023-02-20T05:19:55;101774.47;;;7.09;77.76
69173;BME280;56280;49.662;8.408;2023-02-20T05:22:21;101783.75;;;7.18;76.93
69173;BME280;56280;49.662;8.408;2023-02-20T05:24:50;101781.97;;;7.18;76.52
69173;BME280;56280;49.662;8.408;2023-02-20T05:27:17;101784.38;;;7.23;76.55
69173;BME280;56280;49.662;8.408;2023-02-20T05:29:48;101775.97;;;7.15;77.29
69173;BME280;56280;49.662;8.408;2023-02-20T05:32:15;101783.53;;;6.64;79.08
69173;BME280;56280;49.662;8.408;2023-02-20T05:34:44;101739.50;;;6.02;80.59
69173;BME280;56280;49.662;8.408;2023-02-20T05:37:12;101729.94;;;6.00;80.45
69173;BME280;56280;49.662;8.408;2023-02-20T05:39:37;101792.88;;;6.71;79.86
69173;BME280;56280;49.662;8.408;2023-02-20T05:42:04;101797.94;;;6.36;80.98
69173;BME280;56280;49.662;8.408;2023-02-20T05:44:30;101744.00;;;5.56;82.31
69173;BME280;56280;49.662;8.408;2023-02-20T05:46:55;101762.75;;;5.93;82.69
69173;BME280;56280;49.662;8.408;2023-02-20T05:49:21;101803.38;;;6.52;81.43
69173;BME280;56280;49.662;8.408;2023-02-20T05:51:47;101781.41;;;6.51;80.60
69173;BME280;56280;49.662;8.408;2023-02-20T05:54:14;101765.44;;;6.54;79.76
69173;BME280;56280;49.662;8.408;2023-02-20T05:56:41;101770.84;;;6.31;81.04
69173;BME280;56280;49.662;8.408;2023-02-20T05:59:06;101786.63;;;6.32;82.10
69173;BME280;56280;49.662;8.408;2023-02-20T06:01:33;101779.03;;;6.45;81.77
69173;BME280;56280;49.662;8.408;2023-02-20T06:03:58;101742.75;;;6.09;81.56
69173;BME280;56280;49.662;8.408;2023-02-20T06:06:40;101781.00;;;5.99;83.39
69173;BME280;56280;49.662;8.408;2023-02-20T06:09:08;101774.69;;;6.44;82.28
69173;BME280;56280;49.662;8.408;2023-02-20T06:11:35;101755.28;;;6.25;82.14
69173;BME280;56280;49.662;8.408;2023-02-20T06:14:00;101706.97;;;6.02;81.94
69173;BME280;56280;49.662;8.408;2023-02-20T06:16:27;101772.44;;;6.55;80.87
69173;BME280;56280;49.662;8.408;2023-02-20T06:18:53;101737.75;;;6.44;80.56
69173;BME280;56280;49.662;8.408;2023-02-20T06:21:19;101764.09;;;6.65;79.64
69173;BME280;56280;49.662;8.408;2023-02-20T06:23:48;101741.41;;;6.19;81.61
69173;BME280;56280;49.662;8.408;2023-02-20T06:26:14;101754.81;;;6.35;80.95
69173;BME280;56280;49.662;8.408;2023-02-20T06:28:40;101752.25;;;6.34;80.75
69173;BME280;56280;49.662;8.408;2023-02-20T06:31:06;101775.03;;;6.76;80.18
69173;BME280;56280;49.662;8.408;2023-02-20T06:33:32;101779.47;;;6.75;79.33
69173;BME280;56280;49.662;8.408;2023-02-20T06:35:58;101771.56;;;6.75;79.05
69173;BME280;56280;49.662;8.408;2023-02-20T06:38:24;101753.47;;;6.66;78.39
69173;BME280;56280;49.662;8.408;2023-02-20T06:40:49;101742.31;;;6.60;78.95
69173;BME280;56280;49.662;8.408;2023-02-20T06:43:15;101708.31;;;6.12;80.22
69173;BME280;56280;49.662;8.408;2023-02-20T06:45:40;101744.31;;;6.54;79.65
69173;BME280;56280;49.662;8.408;2023-02-20T06:48:09;101765.06;;;6.64;79.21
69173;BME280;56280;49.662;8.408;2023-02-20T06:50:34;101746.19;;;6.52;79.68
69173;BME280;56280;49.662;8.408;2023-02-20T06:53:00;101752.84;;;6.41;80.82
69173;BME280;56280;49.662;8.408;2023-02-20T06:55:25;101770.72;;;6.54;80.83
69173;BME280;56280;49.662;8.408;2023-02-20T06:57:51;101751.72;;;6.26;81.64
69173;BME280;56280;49.662;8.408;2023-02-20T07:00:16;101771.69;;;6.11;83.38
69173;BME280;56280;49.662;8.408;2023-02-20T07:02:42;101761.88;;;6.35;83.28
69173;BME280;56280;49.662;8.408;2023-02-20T07:05:09;101787.75;;;6.68;82.84
69173;BME280;56280;49.662;8.408;2023-02-20T07:07:35;101793.00;;;6.88;82.01
69173;BME280;56280;49.662;8.408;2023-02-20T07:10:00;101777.34;;;6.84;80.85
69173;BME280;56280;49.662;8.408;2023-02-20T07:12:30;101781.09;;;6.99;80.61
69173;BME280;56280;49.662;8.408;2023-02-20T07:14:58;101752.50;;;6.69;80.37
69173;BME280;56280;49.662;8.408;2023-02-20T07:17:23;101775.47;;;6.46;80.62
69173;BME280;56280;49.662;8.408;2023-02-20T07:19:49;101806.59;;;6.60;81.04
69173;BME280;56280;49.662;8.408;2023-02-20T07:22:14;101805.91;;;6.75;80.70
69173;BME280;56280;49.662;8.408;2023-02-20T07:24:39;101770.84;;;6.72;80.29
69173;BME280;56280;49.662;8.408;2023-02-20T07:27:06;101777.25;;;7.06;78.88
69173;BME280;56280;49.662;8.408;2023-02-20T07:29:32;101757.75;;;7.27;78.31
69173;BME280;56280;49.662;8.408;2023-02-20T07:31:57;101801.47;;;7.90;77.03
69173;BME280;56280;49.662;8.408;2023-02-20T07:34:22;101765.97;;;7.77;76.64
69173;BME280;56280;49.662;8.408;2023-02-20T07:36:48;101774.13;;;8.09;76.18
69173;BME280;56280;49.662;8.408;2023-02-20T07:39:24;101783.66;;;8.48;74.97
69173;BME280;56280;49.662;8.408;2023-02-20T07:41:50;101793.53;;;8.62;74.42
69173;BME280;56280;49.662;8.408;2023-02-20T07:44:16;101773.50;;;8.56;75.35
69173;BME280;56280;49.662;8.408;2023-02-20T07:46:41;101768.78;;;8.79;75.24
69173;BME280;56280;49.662;8.408;2023-02-20T07:49:07;101793.44;;;9.30;74.53
69173;BME280;56280;49.662;8.408;2023-02-20T07:51:33;101765.03;;;9.32;73.40
69173;BME280;56280;49.662;8.408;2023-02-20T07:53:59;101769.72;;;9.27;72.53
69173;BME280;56280;49.662;8.408;2023-02-20T07:56:24;101789.75;;;9.17;73.62
69173;BME280;56280;49.662;8.408;2023-02-20T07:58:50;101791.22;;;9.38;74.01
69173;BME280;56280;49.662;8.408;2023-02-20T08:01:16;101784.03;;;9.56;72.63
69173;BME280;56280;49.662;8.408;2023-02-20T08:03:41;101759.44;;;9.84;71.73
69173;BME280;56280;49.662;8.408;2023-02-20T08:06:06;101757.38;;;9.90;71.97
69173;BME280;56280;49.662;8.408;2023-02-20T08:08:32;101761.84;;;9.89;71.19
69173;BME280;56280;49.662;8.408;2023-02-20T08:10:57;101775.44;;;9.99;71.98
69173;BME280;56280;49.662;8.408;2023-02-20T08:13:23;101760.44;;;10.28;71.38
69173;BME280;56280;49.662;8.408;2023-02-20T08:15:48;101739.78;;;10.33;70.59
69173;BME280;56280;49.662;8.408;2023-02-20T08:18:14;101759.34;;;10.32;70.90
69173;BME280;56280;49.662;8.408;2023-02-20T08:20:40;101733.88;;;10.28;70.39
69173;BME280;56280;49.662;8.408;2023-02-20T08:23:12;101748.06;;;10.57;70.50
69173;BME280;56280;49.662;8.408;2023-02-20T08:25:39;101723.31;;;10.86;70.27
69173;BME280;56280;49.662;8.408;2023-02-20T08:28:05;101722.28;;;10.88;69.86
69173;BME280;56280;49.662;8.408;2023-02-20T08:30:30;101751.03;;;10.96;69.87
69173;BME280;56280;49.662;8.408;2023-02-20T08:32:55;101728.06;;;10.52;70.00
69173;BME280;56280;49.662;8.408;2023-02-20T08:35:22;101747.31;;;10.55;70.63
69173;BME280;56280;49.662;8.408;2023-02-20T08:37:50;101729.47;;;10.72;69.12
69173;BME280;56280;49.662;8.408;2023-02-20T08:40:15;101709.75;;;10.76;69.53
69173;BME280;56280;49.662;8.408;2023-02-20T08:42:41;101710.78;;;10.88;69.70
69173;BME280;56280;49.662;8.408;2023-02-20T08:45:07;101718.28;;;10.81;70.56
69173;BME280;56280;49.662;8.408;2023-02-20T08:47:33;101727.88;;;10.98;69.55
69173;BME280;56280;49.662;8.408;2023-02-20T08:49:58;101726.44;;;11.07;69.34
69173;BME280;56280;49.662;8.408;2023-02-20T08:52:23;101700.38;;;11.12;69.09
69173;BME280;56280;49.662;8.408;2023-02-20T08:54:49;101681.72;;;10.85;69.09
69173;BME280;56280;49.662;8.408;2023-02-20T08:57:15;101725.47;;;11.22;69.46
69173;BME280;56280;49.662;8.408;2023-02-20T08:59:41;101714.16;;;11.46;69.36
69173;BME280;56280;49.662;8.408;2023-02-20T09:02:08;101701.00;;;10.88;69.52
69173;BME280;56280;49.662;8.408;2023-02-20T09:04:42;101693.56;;;11.08;70.00
69173;BME280;56280;49.662;8.408;2023-02-20T09:07:07;101693.81;;;10.76;69.97
69173;BME280;56280;49.662;8.408;2023-02-20T09:09:32;101665.88;;;10.26;71.59
69173;BME280;56280;49.662;8.408;2023-02-20T09:11:57;101652.88;;;10.21;71.26
69173;BME280;56280;49.662;8.408;2023-02-20T09:14:23;101694.03;;;10.28;72.46
69173;BME280;56280;49.662;8.408;2023-02-20T09:16:51;101701.53;;;9.91;73.44
69173;BME280;56280;49.662;8.408;2023-02-20T09:19:16;101649.94;;;9.81;73.38
69173;BME280;56280;49.662;8.408;2023-02-20T09:21:45;101694.00;;;10.14;73.23
69173;BME280;56280;49.662;8.408;2023-02-20T09:24:10;101665.88;;;9.81;73.49
69173;BME280;56280;49.662;8.408;2023-02-20T09:26:35;101674.31;;;9.88;73.34
69173;BME280;56280;49.662;8.408;2023-02-20T09:29:01;101690.06;;;9.91;73.65
69173;BME280;56280;49.662;8.408;2023-02-20T09:31:26;101683.47;;;10.12;72.88
69173;BME280;56280;49.662;8.408;2023-02-20T09:33:51;101696.34;;;10.04;72.53
69173;BME280;56280;49.662;8.408;2023-02-20T09:36:16;101697.91;;;10.08;72.78
69173;BME280;56280;49.662;8.408;2023-02-20T09:38:42;101664.25;;;10.23;72.94
69173;BME280;56280;49.662;8.408;2023-02-20T09:41:18;101661.34;;;10.42;71.92
69173;BME280;56280;49.662;8.408;2023-02-20T09:43:58;101680.59;;;10.74;71.94
69173;BME280;56280;49.662;8.408;2023-02-20T09:46:29;101655.34;;;10.82;71.04
69173;BME280;56280;49.662;8.408;2023-02-20T09:51:24;101674.31;;;10.90;71.25
69173;BME280;56280;49.662;8.408;2023-02-20T09:54:03;101652.28;;;10.88;71.26
69173;BME280;56280;49.662;8.408;2023-02-20T09:56:56;101625.41;;;10.92;70.74
69173;BME280;56280;49.662;8.408;2023-02-20T09:59:25;101663.63;;;11.04;70.42
69173;BME280;56280;49.662;8.408;2023-02-20T10:02:00;101636.69;;;10.96;69.94
69173;BME280;56280;49.662;8.408;2023-02-20T10:04:37;101614.63;;;11.08;69.50
69173;BME280;56280;49.662;8.408;2023-02-20T10:07:14;101655.13;;;11.54;67.77
69173;BME280;56280;49.662;8.408;2023-02-20T10:09:41;101627.78;;;11.52;67.02
69173;BME280;56280;49.662;8.408;2023-02-20T10:18:08;101660.16;;;11.98;67.49
69173;BME280;56280;49.662;8.408;2023-02-20T10:21:00;101631.91;;;12.21;65.47
69173;BME280;56280;49.662;8.408;2023-02-20T10:23:47;101652.91;;;12.13;66.79
69173;BME280;56280;49.662;8.408;2023-02-20T10:26:27;101640.31;;;12.02;66.49
69173;BME280;56280;49.662;8.408;2023-02-20T10:28:55;101660.69;;;12.03;66.70
69173;BME280;56280;49.662;8.408;2023-02-20T10:31:36;101638.13;;;12.09;66.30
69173;BME280;56280;49.662;8.408;2023-02-20T10:34:09;101657.50;;;12.37;65.61
69173;BME280;56280;49.662;8.408;2023-02-20T10:36:39;101609.75;;;12.21;65.93
69173;BME280;56280;49.662;8.408;2023-02-20T10:39:09;101622.72;;;12.64;64.58
69173;BME280;56280;49.662;8.408;2023-02-20T10:42:08;101646.34;;;12.82;64.99
69173;BME280;56280;49.662;8.408;2023-02-20T10:44:39;101625.25;;;12.79;63.90
69173;BME280;56280;49.662;8.408;2023-02-20T10:50:02;101620.25;;;12.61;62.19
69173;BME280;56280;49.662;8.408;2023-02-20T10:52:45;101624.63;;;12.62;60.94
69173;BME280;56280;49.662;8.408;2023-02-20T10:55:17;101635.47;;;12.85;61.22
69173;BME280;56280;49.662;8.408;2023-02-20T10:57:50;101629.38;;;12.83;59.92
69173;BME280;56280;49.662;8.408;2023-02-20T11:00:22;101634.91;;;13.17;59.55
69173;BME280;56280;49.662;8.408;2023-02-20T11:02:56;101621.78;;;13.13;59.14
69173;BME280;56280;49.662;8.408;2023-02-20T11:05:26;101626.09;;;13.27;59.46
69173;BME280;56280;49.662;8.408;2023-02-20T11:07:53;101594.59;;;12.84;58.58
69173;BME280;56280;49.662;8.408;2023-02-20T11:10:18;101636.16;;;13.24;57.92
69173;BME280;56280;49.662;8.408;2023-02-20T11:12:50;101633.91;;;13.55;57.80
69173;BME280;56280;49.662;8.408;2023-02-20T11:15:19;101622.47;;;13.04;58.38
69173;BME280;56280;49.662;8.408;2023-02-20T11:17:48;101613.72;;;13.26;57.92
69173;BME280;56280;49.662;8.408;2023-02-20T11:23:00;101623.34;;;13.53;56.97
69173;BME280;56280;49.662;8.408;2023-02-20T11:25:33;101629.19;;;13.58;56.83
69173;BME280;56280;49.662;8.408;2023-02-20T11:28:20;101612.38;;;13.80;55.79
69173;BME280;56280;49.662;8.408;2023-02-20T11:30:49;101575.00;;;13.92;54.72
69173;BME280;56280;49.662;8.408;2023-02-20T11:33:24;101595.56;;;14.25;55.27
69173;BME280;56280;49.662;8.408;2023-02-20T11:36:07;101591.50;;;13.97;55.54
69173;BME280;56280;49.662;8.408;2023-02-20T11:38:35;101605.00;;;14.29;54.48
69173;BME280;56280;49.662;8.408;2023-02-20T11:41:06;101602.47;;;14.16;54.69
69173;BME280;56280;49.662;8.408;2023-02-20T11:43:37;101563.72;;;13.99;54.53
69173;BME280;56280;49.662;8.408;2023-02-20T11:46:16;101594.56;;;14.37;53.39
69173;BME280;56280;49.662;8.408;2023-02-20T11:51:43;101569.78;;;14.13;52.41
69173;BME280;56280;49.662;8.408;2023-02-20T11:54:22;101575.72;;;14.16;52.08
69173;BME280;56280;49.662;8.408;2023-02-20T11:59:26;101568.69;;;13.93;52.69
69173;BME280;56280;49.662;8.408;2023-02-20T12:01:51;101542.59;;;13.96;52.80
69173;BME280;56280;49.662;8.408;2023-02-20T12:04:19;101550.72;;;13.95;52.40
69173;BME280;56280;49.662;8.408;2023-02-20T12:06:45;101569.44;;;14.06;51.79
69173;BME280;56280;49.662;8.408;2023-02-20T12:09:14;101559.22;;;14.00;51.97
69173;BME280;56280;49.662;8.408;2023-02-20T12:11:41;101549.88;;;14.06;52.22
69173;BME280;56280;49.662;8.408;2023-02-20T12:14:11;101521.78;;;13.66;51.97
69173;BME280;56280;49.662;8.408;2023-02-20T12:19:21;101540.41;;;14.13;51.64
69173;BME280;56280;49.662;8.408;2023-02-20T12:27:30;101529.47;;;13.93;50.95
69173;BME280;56280;49.662;8.408;2023-02-20T12:35:54;101486.47;;;13.51;51.54
69173;BME280;56280;49.662;8.408;2023-02-20T12:41:13;101495.31;;;13.63;50.79
69173;BME280;56280;49.662;8.408;2023-02-20T12:46:30;101481.72;;;14.11;49.64
69173;BME280;56280;49.662;8.408;2023-02-20T12:57:01;101450.19;;;13.71;50.65
69173;BME280;56280;49.662;8.408;2023-02-20T12:59:49;101487.94;;;13.78;50.80
69173;BME280;56280;49.662;8.408;2023-02-20T13:02:28;101459.78;;;13.74;50.72
69173;BME280;56280;49.662;8.408;2023-02-20T13:05:00;101464.00;;;13.88;50.77
69173;BME280;56280;49.662;8.408;2023-02-20T13:10:09;101469.09;;;13.91;50.91
69173;BME280;56280;49.662;8.408;2023-02-20T13:12:37;101464.63;;;13.57;51.48
69173;BME280;56280;49.662;8.408;2023-02-20T13:20:39;101463.28;;;13.52;51.35
69173;BME280;56280;49.662;8.408;2023-02-20T13:25:43;101461.56;;;13.62;51.55
69173;BME280;56280;49.662;8.408;2023-02-20T13:30:38;101459.53;;;13.99;51.27
69173;BME280;56280;49.662;8.408;2023-02-20T13:33:21;101435.03;;;13.83;51.59
69173;BME280;56280;49.662;8.408;2023-02-20T13:35:56;101446.16;;;13.99;51.00
69173;BME280;56280;49.662;8.408;2023-02-20T13:38:24;101447.25;;;13.85;51.20
69173;BME280;56280;49.662;8.408;2023-02-20T13:45:47;101434.50;;;13.89;51.23
69173;BME280;56280;49.662;8.408;2023-02-20T13:48:41;101413.47;;;13.96;51.18
69173;BME280;56280;49.662;8.408;2023-02-20T13:56:44;101407.88;;;14.10;51.21
69173;BME280;56280;49.662;8.408;2023-02-20T13:59:13;101411.75;;;14.17;50.21
69173;BME280;56280;49.662;8.408;2023-02-20T14:04:29;101379.19;;;14.23;49.71
69173;BME280;56280;49.662;8.408;2023-02-20T14:06:55;101362.28;;;14.23;50.03
69173;BME280;56280;49.662;8.408;2023-02-20T14:09:23;101363.19;;;14.45;49.94
69173;BME280;56280;49.662;8.408;2023-02-20T14:11:52;101376.63;;;14.54;50.01
69173;BME280;56280;49.662;8.408;2023-02-20T14:14:25;101381.03;;;14.55;49.80
69173;BME280;56280;49.662;8.408;2023-02-20T14:17:22;101353.66;;;14.52;50.32
69173;BME280;56280;49.662;8.408;2023-02-20T14:19:52;101347.34;;;14.53;50.46
69173;BME280;56280;49.662;8.408;2023-02-20T14:22:22;101357.91;;;14.87;50.13
69173;BME280;56280;49.662;8.408;2023-02-20T14:27:41;101353.06;;;15.02;48.89
69173;BME280;56280;49.662;8.408;2023-02-20T14:32:37;101299.41;;;14.40;48.90
69173;BME280;56280;49.662;8.408;2023-02-20T14:35:48;101315.88;;;14.77;48.39
69173;BME280;56280;49.662;8.408;2023-02-20T14:38:41;101307.94;;;14.66;47.70
69173;BME280;56280;49.662;8.408;2023-02-20T14:41:19;101336.19;;;14.80;48.07
69173;BME280;56280;49.662;8.408;2023-02-20T14:43:53;101280.66;;;14.51;47.88
69173;BME280;56280;49.662;8.408;2023-02-20T14:46:25;101300.88;;;14.86;46.77
69173;BME280;56280;49.662;8.408;2023-02-20T14:49:12;101324.06;;;15.07;46.97
69173;BME280;56280;49.662;8.408;2023-02-20T14:51:38;101302.75;;;14.95;46.90